Time;durP1;ratioP1;P1;durP2;ratioP2;P2;SDS_P1;SDS_P2;PMS_P1;PMS_P2;Temp;Humidity;BMP_temperature;BMP_pressure;BME280_temperature;BME280_humidity;BME280_pressure;Samples;Min_cycle;Max_cycle;Signal;HPM_P1;HPM_P2
2023/07/31 00:09:22;;;;;;;5.35;2.10;;;;;;;16.60;75.50;99842.91;31085705;28;97494;-64
2023/07/31 00:24:22;;;;;;;5.60;2.15;;;;;;;16.57;75.52;99853.03;31084556;28;96775;-64
2023/07/31 00:39:22;;;;;;;3.95;1.90;;;;;;;16.44;74.88;99847.75;31084088;28;106959;-64
2023/07/31 00:54:23;;;;;;;3.30;1.65;;;;;;;16.30;74.61;99844.31;31082006;28;113942;-66
2023/07/31 01:09:42;;;;;;;4.83;1.67;;;;;;;16.32;74.57;99838.72;31081555;28;96954;-64
2023/07/31 01:25:06;;;;;;;1.93;1.37;;;;;;;16.46;74.16;99840.31;31080086;28;97736;-67
2023/07/31 01:40:07;;;;;;;3.93;1.73;;;;;;;16.49;73.32;99834.47;31090337;28;97232;-64
2023/07/31 01:55:08;;;;;;;4.80;1.67;;;;;;;16.50;72.96;99843.38;31098309;28;97457;-66
2023/07/31 02:10:08;;;;;;;4.03;1.70;;;;;;;16.24;72.83;99839.81;31097299;28;97068;-67
2023/07/31 02:25:09;;;;;;;8.80;1.83;;;;;;;16.40;72.75;99841.16;31096574;28;97286;-63
2023/07/31 02:40:09;;;;;;;3.97;1.50;;;;;;;16.41;72.06;99832.06;31093621;28;96829;-63
2023/07/31 02:55:10;;;;;;;7.28;1.70;;;;;;;16.18;72.12;99844.22;31091939;28;97616;-63
2023/07/31 03:10:10;;;;;;;7.72;1.92;;;;;;;15.98;71.73;99841.63;31089817;28;98166;-64
2023/07/31 03:25:10;;;;;;;8.63;1.98;;;;;;;15.79;72.16;99840.63;31088889;28;96695;-64
2023/07/31 03:40:11;;;;;;;7.05;2.30;;;;;;;15.61;71.62;99848.53;31085632;28;112365;-67
2023/07/31 03:55:11;;;;;;;5.28;2.45;;;;;;;15.59;71.96;99843.38;31084862;28;97521;-63
2023/07/31 04:10:12;;;;;;;7.32;1.98;;;;;;;15.63;71.62;99833.06;31084439;28;97209;-65
2023/07/31 04:25:12;;;;;;;4.53;1.80;;;;;;;15.53;71.39;99834.31;31080890;28;96984;-66
2023/07/31 04:40:12;;;;;;;6.03;2.20;;;;;;;15.78;71.22;99840.84;31076247;28;97300;-63
2023/07/31 04:55:13;;;;;;;7.88;2.55;;;;;;;16.17;70.63;99839.88;31052999;28;98095;-66
2023/07/31 05:10:13;;;;;;;8.63;2.53;;;;;;;16.78;69.88;99842.94;31057704;28;97697;-66
2023/07/31 05:25:14;;;;;;;5.53;2.00;;;;;;;17.63;68.24;99848.78;31099043;28;97405;-68
2023/07/31 05:40:14;;;;;;;7.47;1.95;;;;;;;18.12;66.74;99848.81;31086595;28;96758;-72
2023/07/31 05:55:16;;;;;;;3.60;2.25;;;;;;;18.59;65.74;99846.28;31076648;28;97756;-68
2023/07/31 06:10:16;;;;;;;2.50;1.37;;;;;;;19.21;63.92;99845.06;31070789;28;97983;-75
2023/07/31 06:25:17;;;;;;;6.93;1.70;;;;;;;19.11;62.09;99849.16;31075955;28;100723;-72
2023/07/31 06:40:17;;;;;;;5.28;1.75;;;;;;;19.50;62.01;99845.13;31074359;28;97544;-70
2023/07/31 06:55:20;;;;;;;3.67;1.52;;;;;;;20.03;60.53;99848.66;31069720;28;98614;-67
2023/07/31 07:10:20;;;;;;;4.07;1.30;;;;;;;19.80;59.71;99836.84;31077351;28;99058;-66
2023/07/31 07:25:20;;;;;;;4.70;1.47;;;;;;;20.31;58.26;99825.34;31091925;28;97596;-65
2023/07/31 07:40:21;;;;;;;4.10;1.73;;;;;;;21.00;57.21;99819.75;31075992;28;97272;-65
2023/07/31 07:55:21;;;;;;;5.23;1.97;;;;;;;21.14;55.93;99814.78;31080197;28;96956;-71
2023/07/31 08:10:21;;;;;;;5.83;1.27;;;;;;;21.58;53.34;99812.16;31080483;28;97596;-78
2023/07/31 08:25:22;;;;;;;5.90;1.43;;;;;;;22.63;52.88;99802.88;31061286;28;97260;-71
2023/07/31 08:40:22;;;;;;;2.97;1.10;;;;;;;23.94;47.21;99822.38;31062567;28;105474;-65
2023/07/31 08:55:24;;;;;;;5.25;1.52;;;;;;;23.54;46.72;99799.34;31080721;28;98331;-67
2023/07/31 09:10:24;;;;;;;2.43;1.43;;;;;;;22.07;47.70;99813.22;31080494;28;97666;-68
2023/07/31 09:25:26;;;;;;;3.00;1.55;;;;;;;22.93;46.98;99809.63;31081395;28;97596;-65
2023/07/31 09:40:31;;;;;;;4.53;1.10;;;;;;;21.27;47.64;99830.69;31079825;28;98139;-65
2023/07/31 09:55:31;;;;;;;8.47;1.73;;;;;;;21.10;49.21;99832.59;31092267;28;97098;-68
2023/07/31 10:10:32;;;;;;;1.80;1.10;;;;;;;20.99;50.62;99822.69;31096622;28;96785;-69
2023/07/31 10:25:34;;;;;;;1.87;1.17;;;;;;;21.31;51.14;99801.22;31093770;28;96760;-68
2023/07/31 10:40:34;;;;;;;2.13;1.07;;;;;;;21.65;50.19;99798.38;31092250;28;96810;-71
2023/07/31 10:55:42;;;;;;;3.37;1.23;;;;;;;21.63;49.27;99790.50;31091840;28;97054;-68
2023/07/31 11:10:44;;;;;;;3.77;1.20;;;;;;;22.92;49.13;99782.72;31090534;28;97734;-67
2023/07/31 11:25:45;;;;;;;2.63;1.27;;;;;;;24.89;44.52;99763.91;31088261;28;97522;-69
2023/07/31 11:40:45;;;;;;;3.90;1.40;;;;;;;26.10;41.13;99731.97;31085962;28;96804;-70
2023/07/31 11:55:46;;;;;;;3.35;1.38;;;;;;;26.66;39.62;99716.97;31084150;28;96994;-69
2023/07/31 12:10:49;;;;;;;6.97;2.40;;;;;;;26.60;39.69;99701.78;31084665;28;96768;-68
2023/07/31 12:26:12;;;;;;;2.80;1.60;;;;;;;25.45;39.60;99683.84;31081056;28;96802;-69
2023/07/31 12:41:13;;;;;;;4.03;1.67;;;;;;;25.20;40.82;99662.16;31081236;28;96686;-67
2023/07/31 12:56:13;;;;;;;2.80;1.50;;;;;;;25.15;41.25;99643.88;31079387;28;98152;-75
2023/07/31 13:11:14;;;;;;;3.92;1.80;;;;;;;24.58;42.22;99633.22;31076812;28;97511;-69
2023/07/31 13:26:14;;;;;;;3.90;2.33;;;;;;;24.49;43.04;99616.63;31073728;28;96789;-63
2023/07/31 13:41:14;;;;;;;3.60;1.65;;;;;;;25.07;41.76;99598.16;31091996;28;97170;-67
2023/07/31 13:56:15;;;;;;;3.38;1.80;;;;;;;24.75;42.45;99589.31;31095748;28;97064;-63
2023/07/31 14:11:15;;;;;;;5.90;2.08;;;;;;;24.46;43.00;99586.41;31092650;28;121287;-63
2023/07/31 14:26:16;;;;;;;3.50;1.90;;;;;;;24.46;42.36;99580.97;31093395;28;97086;-63
2023/07/31 14:41:16;;;;;;;4.13;1.83;;;;;;;24.08;43.46;99577.81;31090634;28;97133;-65
2023/07/31 14:56:17;;;;;;;7.22;2.63;;;;;;;23.92;44.16;99571.56;31090240;28;114220;-65
2023/07/31 15:11:18;;;;;;;3.35;1.83;;;;;;;23.82;43.95;99554.16;31088487;28;97343;-64
2023/07/31 15:26:18;;;;;;;3.47;1.47;;;;;;;24.27;42.84;99543.47;31086847;28;97186;-64
2023/07/31 15:41:19;;;;;;;5.50;1.80;;;;;;;24.36;42.33;99532.84;31085646;28;97366;-64
2023/07/31 15:56:21;;;;;;;2.60;1.67;;;;;;;24.17;41.69;99514.38;31083033;28;98591;-64
2023/07/31 16:11:21;;;;;;;3.92;1.70;;;;;;;24.07;41.85;99508.16;31083711;28;97201;-65
2023/07/31 16:26:21;;;;;;;2.65;1.40;;;;;;;23.12;43.83;99504.94;31079400;28;98154;-64
2023/07/31 16:41:23;;;;;;;6.53;1.77;;;;;;;23.22;44.75;99504.16;31080048;28;103579;-64
2023/07/31 16:56:23;;;;;;;3.50;1.20;;;;;;;23.13;45.10;99499.25;31078559;28;97983;-65
2023/07/31 17:11:24;;;;;;;5.40;1.48;;;;;;;22.86;46.39;99487.78;31091991;28;96971;-62
2023/07/31 17:26:24;;;;;;;4.50;1.48;;;;;;;22.52;47.58;99496.41;31100424;28;97088;-63
2023/07/31 17:41:27;;;;;;;;;;;;;;;22.27;48.38;99479.72;31098345;28;99860;-63
2023/07/31 17:56:28;;;;;;;3.77;1.60;;;;;;;22.10;48.62;99479.09;31023162;28;97217;-71
2023/07/31 18:11:30;;;;;;;4.07;1.37;;;;;;;21.80;49.70;99499.53;31087280;28;97844;-64
2023/07/31 18:26:30;;;;;;;3.47;1.80;;;;;;;21.56;50.86;99504.53;31082789;28;96831;-64
2023/07/31 18:41:30;;;;;;;6.73;1.87;;;;;;;21.36;51.93;99491.63;31084646;28;97366;-64
2023/07/31 18:56:31;;;;;;;4.73;1.80;;;;;;;21.13;52.75;99470.03;31085249;28;97147;-66
2023/07/31 19:11:31;;;;;;;4.87;2.77;;;;;;;20.83;53.72;99461.63;31084405;28;97363;-65
2023/07/31 19:26:32;;;;;;;5.80;2.23;;;;;;;20.41;55.15;99454.94;31081064;28;97086;-65
2023/07/31 19:41:32;;;;;;;5.30;2.13;;;;;;;20.05;56.42;99436.41;31081177;28;100538;-68
2023/07/31 19:56:32;;;;;;;5.33;2.00;;;;;;;19.97;57.38;99427.91;31078411;28;97650;-67
2023/07/31 20:11:33;;;;;;;9.00;2.40;;;;;;;19.89;58.08;99410.25;31039282;28;97815;-67
2023/07/31 20:26:33;;;;;;;7.43;2.57;;;;;;;19.73;58.76;99398.41;30953597;28;97095;-67
2023/07/31 20:41:34;;;;;;;6.15;2.10;;;;;;;19.67;59.34;99380.47;30966112;28;97549;-67
2023/07/31 20:56:35;;;;;;;4.27;2.10;;;;;;;19.68;59.59;99355.09;31073091;28;97394;-65
2023/07/31 21:11:37;;;;;;;4.50;2.10;;;;;;;19.65;59.60;99340.19;31188205;28;97273;-64
2023/07/31 21:26:37;;;;;;;6.57;2.27;;;;;;;19.42;60.20;99342.09;31245212;27;97299;-64
2023/07/31 21:41:37;;;;;;;5.53;2.08;;;;;;;19.30;60.84;99329.72;31220000;28;97401;-64
2023/07/31 21:56:38;;;;;;;5.15;1.95;;;;;;;19.23;61.14;99316.41;31105412;28;97056;-63
2023/07/31 22:11:38;;;;;;;3.22;1.70;;;;;;;19.23;60.97;99317.25;31097501;28;107925;-63
2023/07/31 22:26:38;;;;;;;6.10;2.08;;;;;;;19.18;60.76;99302.88;31095547;28;97963;-64
2023/07/31 22:41:39;;;;;;;3.08;1.95;;;;;;;19.11;61.04;99276.03;31095285;28;98181;-63
2023/07/31 22:56:40;;;;;;;2.80;1.75;;;;;;;18.97;61.39;99269.34;31090949;28;116093;-63
2023/07/31 23:11:40;;;;;;;;;;;;;;;18.74;61.96;99257.66;31091602;28;97554;-63
2023/07/31 23:26:40;;;;;;;4.35;2.05;;;;;;;18.73;62.41;99237.16;31092416;28;96788;-64
2023/07/31 23:41:41;;;;;;;3.80;2.10;;;;;;;18.75;62.36;99208.03;31088751;28;104482;-64
2023/07/31 23:56:41;;;;;;;4.50;1.90;;;;;;;18.76;62.13;99188.09;31087693;28;97416;-64
